Flight Track Log - Related Links

Times and Time Zones

All times are in EDT time to prevent confusion due to time zone crossing. See the ASQ5678 flight status page for this flight to view local times or setup timezone preferences in your user account.

Time Position Orientation Groundspeed Altitude Reporting Facility
EDT Latitude Longitude Course Direction KTS MPH feet Rate Location/Type
Fri 03:23:00 PM 30.0427 -92.1842 227° Southwest  Level FlightAware Approximate
Fri 03:24:00 PM 30.0005 -92.2560 231° Southwest  Level FlightAware Approximate
Fri 03:24:14 PM 30.2500 -92.1269 258° West 226 260 8,500  Level Houston Center
Fri 03:25:00 PM 29.9508 -92.3256 231° Southwest  Level FlightAware Approximate
Fri 03:25:16 PM 30.2286 -92.2233 256° West 257 296 10,600  Level Houston Center
Fri 03:26:00 PM 29.9064 -92.3975 249° West  Level FlightAware Approximate
Fri 03:26:18 PM 30.1725 -92.2942 228° Southwest 293 337 12,100  Level Houston Center
Fri 03:27:00 PM 29.8539 -92.4744 227° Southwest  Level FlightAware Approximate
Fri 03:27:20 PM 30.1333 -92.3847 243° Southwest 312 359 12,900  Level Houston Center
Fri 03:28:00 PM 29.8018 -92.5527 235° Southwest  Level FlightAware Approximate
Fri 03:28:22 PM 30.0933 -92.4869 246° West 344 396 13,900  Level Houston Center
Fri 03:29:25 PM 30.0514 -92.5906 245° Southwest 354 407 15,000 1,008 Climbing Houston Center
Fri 03:30:27 PM 30.0086 -92.6961 245° Southwest 360 414 16,000 968 Climbing Houston Center
Fri 03:31:29 PM 29.9661 -92.8025 245° Southwest 364 419 17,000 919 Climbing Houston Center
Fri 03:32:31 PM 29.9128 -92.9311 244° Southwest 369 425 17,900 484 Climbing Houston Center
Fri 03:33:33 PM 29.8681 -93.0433 245° Southwest 382 440 18,000 48 Climbing Houston Center
Fri 03:34:35 PM 29.8208 -93.1594 245° Southwest 395 455 18,000  Level Houston Center
Fri 03:35:37 PM 29.7731 -93.2772 245° Southwest 403 464 18,000  Level Houston Center
Fri 03:36:39 PM 29.7239 -93.3936 244° Southwest 404 465 18,000  Level Houston Center
Fri 03:37:41 PM 29.6767 -93.5089 245° Southwest 398 458 18,000  Level Houston Center
Fri 03:38:44 PM 29.6283 -93.6250 244° Southwest 400 460 18,000  Level Houston Center
Fri 03:39:46 PM 29.5717 -93.7631 245° Southwest 399 459 18,000 -48 Level Houston Center
Fri 03:40:48 PM 29.5242 -93.8781 245° Southwest 398 458 17,900 -919 Descending Houston Center
Fri 03:41:50 PM 29.5211 -94.0050 268° West 396 456 16,100 -1,744 Descending Houston Center
Fri 03:42:45 PM 29.5247 -94.1228 272° West 373 429 14,500 -1,355 Descending Houston Center
Fri 03:43:54 PM 29.5303 -94.2425 273° West 356 410 13,300 -769 Descending Houston Center
Fri 03:44:42 PM 29.5333 -94.3356 272° West 332 382 13,000 -495 Descending Houston Center
Fri 03:45:43 PM 29.5728 -94.4364 294° West 338 389 12,400 -797 Descending Houston Center
Fri 03:46:50 PM 29.6164 -94.5389 296° West 305 351 11,300 -983 Descending Houston Center
Fri 03:47:39 PM 29.6442 -94.6075 295° West 287 330 10,500 -973 Descending Houston Center
Fri 03:48:41 PM 29.6928 -94.6758 309° West 275 316 9,500 -1,031 Descending Houston Center
Fri 03:49:47 PM 29.7558 -94.7400 319° Northwest 269 310 8,300 -1,031 Descending Houston Center
Fri 03:50:49 PM 29.8119 -94.8003 317° Northwest 272 313 7,300 -974 Descending Houston Center
Fri 03:51:44 PM 29.8608 -94.8497 319° Northwest 250 288 6,400 -1,082 Descending Houston Center
Fri 03:52:51 PM 29.8939 -94.9300 295° West 264 304 5,100 -1,220 Descending Houston Center
Fri 03:53:47 PM 29.9231 -94.9961 297° West 252 290 3,900 -1,179 Descending Houston Center
Fri 03:54:48 PM 29.9600 -95.0761 298° West 263 303 2,800 -989 Descending Houston Center
Fri 03:55:18 PM 29.9728 -95.1011 301° West 260 299 2,400 -716 Descending Houston Center
Fri 03:55:55 PM 29.9867 -95.1597 285° West 253 291 2,000 -367 Descending Houston Center
Fri 03:56:56 PM 29.9931 -95.2289 276° West 187 215 1,800 -541 Descending Houston Center
Fri 03:57:57 PM 29.9936 -95.2794 271° West 142 163 900 -560 Descending Houston Center
Fri 03:59:26 PM 29.9953 -95.3433 272° West 169 194 400 -337 Descending Houston Center

Login

Don't have an account? Register now (free) for customized features, flight alerts, and more!